sensor_id;sensor_type;location;lat;lon;timestamp;pressure;altitude;pressure_sealevel;temperature;humidity
21234;BME280;10774;42.178;26.578;2024-02-28T00:00:54;100597.47;;;7.46;100.00
21234;BME280;10774;42.178;26.578;2024-02-28T00:03:20;100612.19;;;7.56;100.00
21234;BME280;10774;42.178;26.578;2024-02-28T00:05:47;100615.59;;;7.38;100.00
21234;BME280;10774;42.178;26.578;2024-02-28T00:08:13;100617.19;;;7.44;100.00
21234;BME280;10774;42.178;26.578;2024-02-28T00:10:38;100602.19;;;7.18;100.00
21234;BME280;10774;42.178;26.578;2024-02-28T00:13:04;100600.44;;;7.17;100.00
21234;BME280;10774;42.178;26.578;2024-02-28T00:15:29;100608.25;;;6.99;100.00
21234;BME280;10774;42.178;26.578;2024-02-28T00:17:55;100614.63;;;6.95;100.00
21234;BME280;10774;42.178;26.578;2024-02-28T00:20:20;100600.44;;;7.17;100.00
21234;BME280;10774;42.178;26.578;2024-02-28T00:22:45;100580.56;;;7.02;100.00
21234;BME280;10774;42.178;26.578;2024-02-28T00:25:11;100600.59;;;6.67;100.00
21234;BME280;10774;42.178;26.578;2024-02-28T00:27:37;100615.78;;;6.88;100.00
21234;BME280;10774;42.178;26.578;2024-02-28T00:30:03;100618.28;;;6.93;100.00
21234;BME280;10774;42.178;26.578;2024-02-28T00:32:32;100607.28;;;6.53;100.00
21234;BME280;10774;42.178;26.578;2024-02-28T00:34:58;100601.78;;;6.58;100.00
21234;BME280;10774;42.178;26.578;2024-02-28T00:37:23;100606.41;;;6.78;100.00
21234;BME280;10774;42.178;26.578;2024-02-28T00:39:49;100609.34;;;5.97;100.00
21234;BME280;10774;42.178;26.578;2024-02-28T00:42:15;100603.47;;;5.31;100.00
21234;BME280;10774;42.178;26.578;2024-02-28T00:44:41;100609.75;;;5.01;100.00
21234;BME280;10774;42.178;26.578;2024-02-28T00:47:08;100618.44;;;5.35;100.00
21234;BME280;10774;42.178;26.578;2024-02-28T00:49:34;100612.13;;;5.66;100.00
21234;BME280;10774;42.178;26.578;2024-02-28T00:52:00;100613.56;;;5.76;100.00
21234;BME280;10774;42.178;26.578;2024-02-28T00:54:25;100596.63;;;5.24;100.00
21234;BME280;10774;42.178;26.578;2024-02-28T00:56:51;100605.25;;;4.73;100.00
21234;BME280;10774;42.178;26.578;2024-02-28T00:59:16;100616.53;;;4.52;100.00
21234;BME280;10774;42.178;26.578;2024-02-28T01:01:42;100607.16;;;4.99;100.00
21234;BME280;10774;42.178;26.578;2024-02-28T01:04:07;100615.69;;;5.38;100.00
21234;BME280;10774;42.178;26.578;2024-02-28T01:06:33;100620.31;;;5.60;100.00
21234;BME280;10774;42.178;26.578;2024-02-28T01:08:58;100622.28;;;5.81;100.00
21234;BME280;10774;42.178;26.578;2024-02-28T01:11:24;100620.53;;;5.80;100.00
21234;BME280;10774;42.178;26.578;2024-02-28T01:13:50;100612.00;;;5.69;100.00
21234;BME280;10774;42.178;26.578;2024-02-28T01:16:16;100617.03;;;5.51;100.00
21234;BME280;10774;42.178;26.578;2024-02-28T01:18:42;100618.75;;;5.81;100.00
21234;BME280;10774;42.178;26.578;2024-02-28T01:21:07;100595.84;;;5.75;100.00
21234;BME280;10774;42.178;26.578;2024-02-28T01:23:32;100621.34;;;5.82;100.00
21234;BME280;10774;42.178;26.578;2024-02-28T01:25:58;100628.53;;;5.80;100.00
21234;BME280;10774;42.178;26.578;2024-02-28T01:28:23;100622.06;;;5.87;100.00
21234;BME280;10774;42.178;26.578;2024-02-28T01:30:49;100610.41;;;5.91;100.00
21234;BME280;10774;42.178;26.578;2024-02-28T01:33:14;100608.91;;;6.09;100.00
21234;BME280;10774;42.178;26.578;2024-02-28T01:35:40;100617.03;;;5.78;100.00
21234;BME280;10774;42.178;26.578;2024-02-28T01:38:05;100622.00;;;5.89;100.00
21234;BME280;10774;42.178;26.578;2024-02-28T01:40:31;100613.41;;;5.54;100.00
21234;BME280;10774;42.178;26.578;2024-02-28T01:43:03;100609.09;;;4.64;100.00
21234;BME280;10774;42.178;26.578;2024-02-28T01:45:29;100604.38;;;4.10;100.00
21234;BME280;10774;42.178;26.578;2024-02-28T01:47:54;100614.38;;;3.66;100.00
21234;BME280;10774;42.178;26.578;2024-02-28T01:50:20;100602.22;;;4.25;100.00
21234;BME280;10774;42.178;26.578;2024-02-28T01:52:45;100599.66;;;4.53;100.00
21234;BME280;10774;42.178;26.578;2024-02-28T01:55:11;100599.94;;;4.73;100.00
21234;BME280;10774;42.178;26.578;2024-02-28T01:57:36;100610.47;;;5.07;100.00
21234;BME280;10774;42.178;26.578;2024-02-28T02:00:02;100607.16;;;4.99;100.00
21234;BME280;10774;42.178;26.578;2024-02-28T02:02:29;100610.50;;;4.76;100.00
21234;BME280;10774;42.178;26.578;2024-02-28T02:04:54;100606.81;;;5.10;100.00
21234;BME280;10774;42.178;26.578;2024-02-28T02:07:21;100615.84;;;5.32;100.00
21234;BME280;10774;42.178;26.578;2024-02-28T02:09:47;100611.44;;;5.33;100.00
21234;BME280;10774;42.178;26.578;2024-02-28T02:12:12;100614.66;;;5.42;100.00
21234;BME280;10774;42.178;26.578;2024-02-28T02:14:38;100624.09;;;5.53;100.00
21234;BME280;10774;42.178;26.578;2024-02-28T02:17:03;100626.16;;;5.15;100.00
21234;BME280;10774;42.178;26.578;2024-02-28T02:19:29;100615.56;;;4.85;100.00
21234;BME280;10774;42.178;26.578;2024-02-28T02:21:58;100606.63;;;4.57;100.00
21234;BME280;10774;42.178;26.578;2024-02-28T02:24:23;100628.13;;;4.80;100.00
21234;BME280;10774;42.178;26.578;2024-02-28T02:26:49;100630.72;;;4.82;100.00
21234;BME280;10774;42.178;26.578;2024-02-28T02:29:17;100627.06;;;4.86;100.00
21234;BME280;10774;42.178;26.578;2024-02-28T02:31:42;100639.75;;;5.06;100.00
21234;BME280;10774;42.178;26.578;2024-02-28T02:34:08;100648.38;;;5.14;100.00
21234;BME280;10774;42.178;26.578;2024-02-28T02:36:33;100637.28;;;4.70;100.00
21234;BME280;10774;42.178;26.578;2024-02-28T02:38:59;100648.84;;;4.36;100.00
21234;BME280;10774;42.178;26.578;2024-02-28T02:41:24;100647.19;;;3.64;100.00
21234;BME280;10774;42.178;26.578;2024-02-28T02:43:50;100616.25;;;3.61;100.00
21234;BME280;10774;42.178;26.578;2024-02-28T02:46:15;100645.16;;;3.74;100.00
21234;BME280;10774;42.178;26.578;2024-02-28T02:48:41;100641.03;;;3.62;100.00
21234;BME280;10774;42.178;26.578;2024-02-28T02:51:06;100637.06;;;3.04;100.00
21234;BME280;10774;42.178;26.578;2024-02-28T02:53:32;100644.53;;;3.62;100.00
21234;BME280;10774;42.178;26.578;2024-02-28T02:55:57;100636.00;;;4.19;100.00
21234;BME280;10774;42.178;26.578;2024-02-28T02:58:22;100636.06;;;4.51;100.00
21234;BME280;10774;42.178;26.578;2024-02-28T03:00:48;100640.84;;;4.69;100.00
21234;BME280;10774;42.178;26.578;2024-02-28T03:03:13;100637.44;;;4.64;100.00
21234;BME280;10774;42.178;26.578;2024-02-28T03:05:39;100645.56;;;4.90;100.00
21234;BME280;10774;42.178;26.578;2024-02-28T03:08:04;100644.84;;;4.84;100.00
21234;BME280;10774;42.178;26.578;2024-02-28T03:10:29;100631.03;;;5.01;100.00
21234;BME280;10774;42.178;26.578;2024-02-28T03:12:55;100646.53;;;5.16;100.00
21234;BME280;10774;42.178;26.578;2024-02-28T03:15:20;100636.75;;;5.16;100.00
21234;BME280;10774;42.178;26.578;2024-02-28T03:17:46;100615.84;;;5.04;100.00
21234;BME280;10774;42.178;26.578;2024-02-28T03:20:11;100634.88;;;5.20;100.00
21234;BME280;10774;42.178;26.578;2024-02-28T03:22:39;100630.28;;;4.95;100.00
21234;BME280;10774;42.178;26.578;2024-02-28T03:25:05;100630.16;;;5.00;100.00
21234;BME280;10774;42.178;26.578;2024-02-28T03:27:30;100650.16;;;4.53;100.00
21234;BME280;10774;42.178;26.578;2024-02-28T03:29:56;100651.06;;;4.52;100.00
21234;BME280;10774;42.178;26.578;2024-02-28T03:32:22;100643.47;;;4.70;100.00
21234;BME280;10774;42.178;26.578;2024-02-28T03:34:48;100636.63;;;4.62;100.00
21234;BME280;10774;42.178;26.578;2024-02-28T03:37:14;100671.81;;;4.05;100.00
21234;BME280;10774;42.178;26.578;2024-02-28T03:39:39;100668.44;;;4.32;100.00
21234;BME280;10774;42.178;26.578;2024-02-28T03:42:05;100672.50;;;4.13;100.00
21234;BME280;10774;42.178;26.578;2024-02-28T03:44:30;100668.66;;;3.90;100.00
21234;BME280;10774;42.178;26.578;2024-02-28T03:46:56;100681.78;;;3.97;100.00
21234;BME280;10774;42.178;26.578;2024-02-28T03:49:21;100678.53;;;3.85;100.00
21234;BME280;10774;42.178;26.578;2024-02-28T03:51:47;100684.88;;;3.80;100.00
21234;BME280;10774;42.178;26.578;2024-02-28T03:54:12;100693.19;;;3.63;100.00
21234;BME280;10774;42.178;26.578;2024-02-28T03:56:38;100695.09;;;3.58;100.00
21234;BME280;10774;42.178;26.578;2024-02-28T03:59:03;100694.91;;;3.27;100.00
21234;BME280;10774;42.178;26.578;2024-02-28T04:01:29;100678.66;;;3.42;100.00
21234;BME280;10774;42.178;26.578;2024-02-28T04:03:54;100681.00;;;3.56;100.00
21234;BME280;10774;42.178;26.578;2024-02-28T04:06:20;100685.50;;;3.52;100.00
21234;BME280;10774;42.178;26.578;2024-02-28T04:08:45;100690.50;;;3.66;100.00
21234;BME280;10774;42.178;26.578;2024-02-28T04:11:11;100696.72;;;3.65;100.00
21234;BME280;10774;42.178;26.578;2024-02-28T04:13:36;100670.81;;;3.37;100.00
21234;BME280;10774;42.178;26.578;2024-02-28T04:16:02;100679.41;;;3.49;100.00
21234;BME280;10774;42.178;26.578;2024-02-28T04:18:31;100675.97;;;3.44;100.00
21234;BME280;10774;42.178;26.578;2024-02-28T04:20:56;100681.34;;;3.40;100.00
21234;BME280;10774;42.178;26.578;2024-02-28T04:23:22;100688.97;;;3.56;100.00
21234;BME280;10774;42.178;26.578;2024-02-28T04:25:47;100689.66;;;3.64;100.00
21234;BME280;10774;42.178;26.578;2024-02-28T04:28:13;100686.25;;;3.59;100.00
21234;BME280;10774;42.178;26.578;2024-02-28T04:30:39;100679.31;;;3.52;100.00
21234;BME280;10774;42.178;26.578;2024-02-28T04:33:04;100689.22;;;3.82;100.00
21234;BME280;10774;42.178;26.578;2024-02-28T04:35:29;100690.88;;;3.86;100.00
21234;BME280;10774;42.178;26.578;2024-02-28T04:37:55;100681.84;;;3.93;100.00
21234;BME280;10774;42.178;26.578;2024-02-28T04:40:20;100694.06;;;4.01;100.00
21234;BME280;10774;42.178;26.578;2024-02-28T04:42:46;100699.63;;;3.91;100.00
21234;BME280;10774;42.178;26.578;2024-02-28T04:45:11;100703.34;;;3.83;100.00
21234;BME280;10774;42.178;26.578;2024-02-28T04:47:37;100704.38;;;3.77;100.00
21234;BME280;10774;42.178;26.578;2024-02-28T04:50:04;100680.41;;;3.80;100.00
21234;BME280;10774;42.178;26.578;2024-02-28T04:52:30;100706.34;;;4.05;100.00
21234;BME280;10774;42.178;26.578;2024-02-28T04:54:56;100712.53;;;4.05;100.00
21234;BME280;10774;42.178;26.578;2024-02-28T04:57:21;100712.69;;;3.99;100.00
21234;BME280;10774;42.178;26.578;2024-02-28T04:59:47;100718.72;;;4.06;100.00
21234;BME280;10774;42.178;26.578;2024-02-28T05:02:12;100717.97;;;4.01;100.00
21234;BME280;10774;42.178;26.578;2024-02-28T05:04:38;100720.56;;;4.04;100.00
21234;BME280;10774;42.178;26.578;2024-02-28T05:07:03;100693.81;;;3.74;100.00
21234;BME280;10774;42.178;26.578;2024-02-28T05:09:29;100718.97;;;3.97;100.00
21234;BME280;10774;42.178;26.578;2024-02-28T05:11:55;100721.34;;;4.07;100.00
21234;BME280;10774;42.178;26.578;2024-02-28T05:14:20;100710.94;;;3.98;100.00
21234;BME280;10774;42.178;26.578;2024-02-28T05:16:48;100719.06;;;3.92;100.00
21234;BME280;10774;42.178;26.578;2024-02-28T05:19:14;100712.44;;;4.10;100.00
21234;BME280;10774;42.178;26.578;2024-02-28T05:21:43;100718.31;;;4.23;100.00
21234;BME280;10774;42.178;26.578;2024-02-28T05:24:09;100722.81;;;4.19;100.00
21234;BME280;10774;42.178;26.578;2024-02-28T05:26:35;100742.63;;;4.41;100.00
21234;BME280;10774;42.178;26.578;2024-02-28T05:29:01;100740.53;;;4.53;100.00
21234;BME280;10774;42.178;26.578;2024-02-28T05:31:27;100741.56;;;4.49;100.00
21234;BME280;10774;42.178;26.578;2024-02-28T05:33:55;100746.13;;;4.43;100.00
21234;BME280;10774;42.178;26.578;2024-02-28T05:36:28;100746.19;;;4.40;100.00
21234;BME280;10774;42.178;26.578;2024-02-28T05:38:55;100747.06;;;4.75;100.00
21234;BME280;10774;42.178;26.578;2024-02-28T05:41:21;100747.75;;;4.49;100.00
21234;BME280;10774;42.178;26.578;2024-02-28T05:43:47;100770.47;;;4.61;100.00
21234;BME280;10774;42.178;26.578;2024-02-28T05:46:13;100767.66;;;4.67;100.00
21234;BME280;10774;42.178;26.578;2024-02-28T05:48:42;100772.38;;;4.56;100.00
21234;BME280;10774;42.178;26.578;2024-02-28T05:51:07;100756.25;;;4.62;100.00
21234;BME280;10774;42.178;26.578;2024-02-28T05:53:33;100787.47;;;4.19;100.00
21234;BME280;10774;42.178;26.578;2024-02-28T05:56:04;100777.16;;;4.43;100.00
21234;BME280;10774;42.178;26.578;2024-02-28T05:58:29;100780.56;;;3.74;100.00
21234;BME280;10774;42.178;26.578;2024-02-28T06:00:55;100788.75;;;4.03;100.00
21234;BME280;10774;42.178;26.578;2024-02-28T06:03:20;100780.03;;;4.34;100.00
21234;BME280;10774;42.178;26.578;2024-02-28T06:05:46;100766.47;;;4.44;100.00
21234;BME280;10774;42.178;26.578;2024-02-28T06:08:12;100767.53;;;4.71;100.00
21234;BME280;10774;42.178;26.578;2024-02-28T06:10:38;100773.25;;;4.90;100.00
21234;BME280;10774;42.178;26.578;2024-02-28T06:13:03;100769.19;;;4.41;100.00
21234;BME280;10774;42.178;26.578;2024-02-28T06:15:28;100773.78;;;4.69;100.00
21234;BME280;10774;42.178;26.578;2024-02-28T06:17:59;100779.78;;;5.10;100.00
21234;BME280;10774;42.178;26.578;2024-02-28T06:20:26;100753.22;;;5.08;100.00
21234;BME280;10774;42.178;26.578;2024-02-28T06:22:51;100781.94;;;5.58;100.00
21234;BME280;10774;42.178;26.578;2024-02-28T06:25:17;100783.84;;;5.53;100.00
21234;BME280;10774;42.178;26.578;2024-02-28T06:27:48;100782.22;;;5.48;100.00
21234;BME280;10774;42.178;26.578;2024-02-28T06:30:14;100783.56;;;5.32;100.00
21234;BME280;10774;42.178;26.578;2024-02-28T06:32:40;100782.78;;;5.58;100.00
21234;BME280;10774;42.178;26.578;2024-02-28T06:35:06;100774.00;;;5.84;100.00
21234;BME280;10774;42.178;26.578;2024-02-28T06:37:33;100771.00;;;5.67;100.00
21234;BME280;10774;42.178;26.578;2024-02-28T06:39:58;100782.94;;;5.83;100.00
21234;BME280;10774;42.178;26.578;2024-02-28T06:42:23;100771.75;;;5.72;100.00
21234;BME280;10774;42.178;26.578;2024-02-28T06:44:49;100785.00;;;6.03;100.00
21234;BME280;10774;42.178;26.578;2024-02-28T06:47:15;100779.38;;;4.60;100.00
21234;BME280;10774;42.178;26.578;2024-02-28T06:49:40;100775.69;;;5.29;100.00
21234;BME280;10774;42.178;26.578;2024-02-28T06:52:05;100774.53;;;5.67;100.00
21234;BME280;10774;42.178;26.578;2024-02-28T06:57:06;100771.66;;;5.45;100.00
21234;BME280;10774;42.178;26.578;2024-02-28T06:59:32;100760.13;;;5.45;100.00
21234;BME280;10774;42.178;26.578;2024-02-28T07:01:57;100774.13;;;5.22;100.00
21234;BME280;10774;42.178;26.578;2024-02-28T07:04:22;100786.06;;;5.38;100.00
21234;BME280;10774;42.178;26.578;2024-02-28T07:06:48;100782.81;;;5.27;100.00
21234;BME280;10774;42.178;26.578;2024-02-28T07:09:14;100783.91;;;5.81;100.00
21234;BME280;10774;42.178;26.578;2024-02-28T07:11:40;100780.06;;;6.19;100.00
21234;BME280;10774;42.178;26.578;2024-02-28T07:14:06;100781.34;;;6.34;100.00
21234;BME280;10774;42.178;26.578;2024-02-28T07:16:31;100778.41;;;6.68;100.00
21234;BME280;10774;42.178;26.578;2024-02-28T07:19:00;100780.06;;;6.97;100.00
21234;BME280;10774;42.178;26.578;2024-02-28T07:21:26;100780.31;;;7.14;100.00
21234;BME280;10774;42.178;26.578;2024-02-28T07:23:51;100771.31;;;7.17;100.00
21234;BME280;10774;42.178;26.578;2024-02-28T07:26:16;100781.09;;;7.41;100.00
21234;BME280;10774;42.178;26.578;2024-02-28T07:28:42;100767.63;;;7.44;100.00
21234;BME280;10774;42.178;26.578;2024-02-28T07:31:17;100776.00;;;7.10;100.00
21234;BME280;10774;42.178;26.578;2024-02-28T07:33:43;100773.94;;;6.93;100.00
21234;BME280;10774;42.178;26.578;2024-02-28T07:36:08;100768.72;;;6.90;100.00
21234;BME280;10774;42.178;26.578;2024-02-28T07:38:34;100775.97;;;7.35;100.00
21234;BME280;10774;42.178;26.578;2024-02-28T07:40:59;100785.72;;;7.83;100.00
21234;BME280;10774;42.178;26.578;2024-02-28T07:43:25;100777.47;;;7.19;100.00
21234;BME280;10774;42.178;26.578;2024-02-28T07:45:50;100758.00;;;7.40;100.00
21234;BME280;10774;42.178;26.578;2024-02-28T07:48:15;100781.88;;;7.90;100.00
21234;BME280;10774;42.178;26.578;2024-02-28T07:50:44;100781.22;;;8.29;100.00
21234;BME280;10774;42.178;26.578;2024-02-28T07:53:10;100777.41;;;8.56;100.00
21234;BME280;10774;42.178;26.578;2024-02-28T07:55:35;100759.97;;;8.88;100.00
21234;BME280;10774;42.178;26.578;2024-02-28T07:58:00;100774.75;;;9.18;100.00
21234;BME280;10774;42.178;26.578;2024-02-28T08:00:26;100776.84;;;9.30;100.00
21234;BME280;10774;42.178;26.578;2024-02-28T08:02:51;100790.00;;;8.75;100.00
21234;BME280;10774;42.178;26.578;2024-02-28T08:05:17;100785.31;;;8.80;100.00
21234;BME280;10774;42.178;26.578;2024-02-28T08:07:43;100786.94;;;8.84;100.00
21234;BME280;10774;42.178;26.578;2024-02-28T08:10:09;100800.38;;;8.40;100.00
21234;BME280;10774;42.178;26.578;2024-02-28T08:12:35;100788.06;;;8.36;100.00
21234;BME280;10774;42.178;26.578;2024-02-28T08:15:02;100798.38;;;8.67;100.00
21234;BME280;10774;42.178;26.578;2024-02-28T08:17:27;100793.75;;;9.11;100.00
21234;BME280;10774;42.178;26.578;2024-02-28T08:19:53;100791.19;;;9.29;100.00
21234;BME280;10774;42.178;26.578;2024-02-28T08:22:19;100782.31;;;9.47;100.00
21234;BME280;10774;42.178;26.578;2024-02-28T08:24:45;100789.59;;;9.43;100.00
21234;BME280;10774;42.178;26.578;2024-02-28T08:27:10;100777.56;;;8.74;100.00
21234;BME280;10774;42.178;26.578;2024-02-28T08:29:36;100779.50;;;9.50;100.00
21234;BME280;10774;42.178;26.578;2024-02-28T08:32:09;100780.06;;;9.94;100.00
21234;BME280;10774;42.178;26.578;2024-02-28T08:34:43;100775.28;;;10.39;100.00
21234;BME280;10774;42.178;26.578;2024-02-28T08:37:08;100766.09;;;10.43;100.00
21234;BME280;10774;42.178;26.578;2024-02-28T08:39:33;100749.53;;;10.52;100.00
21234;BME280;10774;42.178;26.578;2024-02-28T08:41:59;100757.72;;;11.01;100.00
21234;BME280;10774;42.178;26.578;2024-02-28T08:44:24;100767.94;;;10.94;100.00
21234;BME280;10774;42.178;26.578;2024-02-28T08:46:50;100760.56;;;10.29;100.00
21234;BME280;10774;42.178;26.578;2024-02-28T08:49:15;100773.69;;;10.35;100.00
21234;BME280;10774;42.178;26.578;2024-02-28T08:51:42;100770.22;;;11.02;100.00
21234;BME280;10774;42.178;26.578;2024-02-28T08:54:07;100765.63;;;10.52;100.00
21234;BME280;10774;42.178;26.578;2024-02-28T08:56:33;100753.44;;;11.14;100.00
21234;BME280;10774;42.178;26.578;2024-02-28T08:58:59;100769.34;;;11.68;100.00
21234;BME280;10774;42.178;26.578;2024-02-28T09:01:24;100763.25;;;11.82;100.00
21234;BME280;10774;42.178;26.578;2024-02-28T09:03:50;100759.53;;;11.18;100.00
21234;BME280;10774;42.178;26.578;2024-02-28T09:06:15;100753.22;;;11.68;100.00
21234;BME280;10774;42.178;26.578;2024-02-28T09:08:41;100764.00;;;12.15;100.00
21234;BME280;10774;42.178;26.578;2024-02-28T09:11:06;100767.31;;;11.89;100.00
21234;BME280;10774;42.178;26.578;2024-02-28T09:13:32;100777.31;;;12.18;100.00
21234;BME280;10774;42.178;26.578;2024-02-28T09:15:57;100768.25;;;12.65;100.00
21234;BME280;10774;42.178;26.578;2024-02-28T09:18:23;100780.59;;;11.92;100.00
21234;BME280;10774;42.178;26.578;2024-02-28T09:20:49;100766.59;;;12.17;100.00
21234;BME280;10774;42.178;26.578;2024-02-28T09:23:14;100782.84;;;12.77;100.00
21234;BME280;10774;42.178;26.578;2024-02-28T09:25:40;100769.00;;;13.27;99.61
21234;BME280;10774;42.178;26.578;2024-02-28T09:28:05;100758.50;;;13.51;93.71
21234;BME280;10774;42.178;26.578;2024-02-28T09:30:31;100749.91;;;13.59;91.46
21234;BME280;10774;42.178;26.578;2024-02-28T09:32:56;100769.38;;;13.21;93.72
21234;BME280;10774;42.178;26.578;2024-02-28T09:35:22;100774.31;;;13.57;93.04
21234;BME280;10774;42.178;26.578;2024-02-28T09:37:47;100750.63;;;13.34;93.62
21234;BME280;10774;42.178;26.578;2024-02-28T09:40:13;100752.44;;;13.48;92.76
21234;BME280;10774;42.178;26.578;2024-02-28T09:42:38;100767.06;;;13.72;91.21
21234;BME280;10774;42.178;26.578;2024-02-28T09:45:04;100760.13;;;13.68;90.70
21234;BME280;10774;42.178;26.578;2024-02-28T09:47:33;100757.50;;;13.81;90.63
21234;BME280;10774;42.178;26.578;2024-02-28T09:50:00;100756.44;;;13.98;89.26
21234;BME280;10774;42.178;26.578;2024-02-28T09:52:26;100749.34;;;14.09;88.72
21234;BME280;10774;42.178;26.578;2024-02-28T09:54:53;100746.81;;;14.21;86.07
21234;BME280;10774;42.178;26.578;2024-02-28T09:57:19;100733.44;;;14.32;84.52
21234;BME280;10774;42.178;26.578;2024-02-28T09:59:45;100740.94;;;14.68;82.91
21234;BME280;10774;42.178;26.578;2024-02-28T10:02:11;100739.25;;;14.93;80.67
21234;BME280;10774;42.178;26.578;2024-02-28T10:04:39;100743.97;;;14.76;82.12
21234;BME280;10774;42.178;26.578;2024-02-28T10:07:12;100740.13;;;15.31;78.84
21234;BME280;10774;42.178;26.578;2024-02-28T10:09:43;100726.91;;;15.39;74.53
21234;BME280;10774;42.178;26.578;2024-02-28T10:12:09;100735.56;;;15.44;74.76
21234;BME280;10774;42.178;26.578;2024-02-28T10:14:34;100739.19;;;15.94;71.79
21234;BME280;10774;42.178;26.578;2024-02-28T10:17:00;100719.84;;;15.75;69.83
21234;BME280;10774;42.178;26.578;2024-02-28T10:19:25;100725.41;;;15.98;68.59
21234;BME280;10774;42.178;26.578;2024-02-28T10:21:52;100731.13;;;16.06;68.33
21234;BME280;10774;42.178;26.578;2024-02-28T10:24:17;100707.94;;;15.78;68.98
21234;BME280;10774;42.178;26.578;2024-02-28T10:26:44;100712.69;;;16.11;68.86
21234;BME280;10774;42.178;26.578;2024-02-28T10:29:10;100700.75;;;16.37;67.96
21234;BME280;10774;42.178;26.578;2024-02-28T10:31:35;100691.13;;;16.33;66.78
21234;BME280;10774;42.178;26.578;2024-02-28T10:34:02;100702.06;;;16.56;67.75
21234;BME280;10774;42.178;26.578;2024-02-28T10:36:31;100705.25;;;16.61;66.50
21234;BME280;10774;42.178;26.578;2024-02-28T10:38:57;100700.28;;;16.43;65.96
21234;BME280;10774;42.178;26.578;2024-02-28T10:41:25;100688.13;;;16.01;67.49
21234;BME280;10774;42.178;26.578;2024-02-28T10:43:51;100696.34;;;16.47;67.22
21234;BME280;10774;42.178;26.578;2024-02-28T10:46:20;100681.97;;;16.82;65.57
21234;BME280;10774;42.178;26.578;2024-02-28T10:48:46;100690.84;;;16.95;65.75
21234;BME280;10774;42.178;26.578;2024-02-28T10:51:15;100683.50;;;17.20;63.76
21234;BME280;10774;42.178;26.578;2024-02-28T10:53:42;100676.94;;;17.34;63.95
21234;BME280;10774;42.178;26.578;2024-02-28T10:56:11;100666.09;;;17.34;61.80
21234;BME280;10774;42.178;26.578;2024-02-28T10:58:37;100661.78;;;17.31;61.46
21234;BME280;10774;42.178;26.578;2024-02-28T11:01:07;100672.72;;;17.18;61.41
21234;BME280;10774;42.178;26.578;2024-02-28T11:03:33;100666.44;;;16.95;62.44
21234;BME280;10774;42.178;26.578;2024-02-28T11:05:59;100658.06;;;17.10;61.76
21234;BME280;10774;42.178;26.578;2024-02-28T11:08:27;100647.44;;;17.29;60.84
21234;BME280;10774;42.178;26.578;2024-02-28T11:10:57;100642.03;;;17.29;61.01
21234;BME280;10774;42.178;26.578;2024-02-28T11:13:27;100654.34;;;17.67;60.90
21234;BME280;10774;42.178;26.578;2024-02-28T11:15:53;100638.53;;;17.83;59.14
21234;BME280;10774;42.178;26.578;2024-02-28T11:18:20;100646.81;;;18.14;58.19
21234;BME280;10774;42.178;26.578;2024-02-28T11:20:46;100644.56;;;18.19;57.72
21234;BME280;10774;42.178;26.578;2024-02-28T11:23:14;100635.75;;;18.06;57.26
21234;BME280;10774;42.178;26.578;2024-02-28T11:25:40;100625.81;;;18.16;57.23
21234;BME280;10774;42.178;26.578;2024-02-28T11:28:06;100631.91;;;18.29;56.72
21234;BME280;10774;42.178;26.578;2024-02-28T11:30:32;100620.56;;;18.35;56.10
21234;BME280;10774;42.178;26.578;2024-02-28T11:32:58;100627.31;;;18.62;56.04
21234;BME280;10774;42.178;26.578;2024-02-28T11:35:27;100616.84;;;18.78;55.31
21234;BME280;10774;42.178;26.578;2024-02-28T11:37:56;100612.38;;;18.14;56.06
21234;BME280;10774;42.178;26.578;2024-02-28T11:40:25;100610.50;;;18.15;57.08
21234;BME280;10774;42.178;26.578;2024-02-28T11:42:55;100608.22;;;18.31;57.01
21234;BME280;10774;42.178;26.578;2024-02-28T11:45:21;100610.06;;;18.51;55.58
21234;BME280;10774;42.178;26.578;2024-02-28T11:47:47;100613.84;;;18.60;54.46
21234;BME280;10774;42.178;26.578;2024-02-28T11:50:15;100598.13;;;18.22;56.29
21234;BME280;10774;42.178;26.578;2024-02-28T11:52:41;100599.91;;;18.33;55.41
21234;BME280;10774;42.178;26.578;2024-02-28T11:55:07;100608.16;;;17.89;56.43
21234;BME280;10774;42.178;26.578;2024-02-28T11:57:32;100602.53;;;18.02;56.27
21234;BME280;10774;42.178;26.578;2024-02-28T12:00:06;100599.97;;;18.63;55.04
21234;BME280;10774;42.178;26.578;2024-02-28T12:02:32;100588.78;;;18.77;54.38
21234;BME280;10774;42.178;26.578;2024-02-28T12:05:02;100581.31;;;19.00;53.56
21234;BME280;10774;42.178;26.578;2024-02-28T12:07:29;100590.78;;;18.75;54.14
21234;BME280;10774;42.178;26.578;2024-02-28T12:09:55;100576.63;;;19.12;53.44
21234;BME280;10774;42.178;26.578;2024-02-28T12:12:21;100579.66;;;19.59;52.60
21234;BME280;10774;42.178;26.578;2024-02-28T12:14:48;100581.41;;;19.89;51.62
21234;BME280;10774;42.178;26.578;2024-02-28T12:17:14;100573.09;;;20.20;50.36
21234;BME280;10774;42.178;26.578;2024-02-28T12:19:40;100571.59;;;20.64;49.09
21234;BME280;10774;42.178;26.578;2024-02-28T12:22:07;100566.22;;;20.82;49.80
21234;BME280;10774;42.178;26.578;2024-02-28T12:24:32;100557.56;;;20.96;48.72
21234;BME280;10774;42.178;26.578;2024-02-28T12:26:58;100551.63;;;21.10;48.68
21234;BME280;10774;42.178;26.578;2024-02-28T12:29:23;100554.53;;;21.27;48.25
21234;BME280;10774;42.178;26.578;2024-02-28T12:31:49;100549.56;;;21.67;46.84
21234;BME280;10774;42.178;26.578;2024-02-28T12:34:14;100549.25;;;21.71;46.65
21234;BME280;10774;42.178;26.578;2024-02-28T12:36:42;100550.00;;;21.45;45.68